Impacts TAF Board INFO
FOR SITUATIONAL AWARENESS. NOT TO BE USED FOR FLIGHT PLANNING PURPOSES.
IDs:

KLAX - Los Angeles Intl, CA, US

Issued at 0258 UTC 26 Feb 2017
Updated at 0314 UTC 26 Feb 2017
Potential Impact None Slight Moderate High
Time0253Z 26/04Z 26/05Z 26/06Z 26/07Z 26/08Z 26/09Z 26/10Z 26/11Z 26/12Z 26/13Z 26/14Z 26/15Z 26/16Z
Type OBS PRVL PRVL PRVL PRVL PRVL PRVL PRVL PRVL PRVL PRVL PRVL PRVL PRVL
VIS 10 >6 >6 >6 >6 >6 >6 >6 >6 >6 5 5 5 5
CIG 100 100 100 100 100 100 30 30 30 30 10 10 10 10
Cover OVC BKN BKN BKN BKN BKN OVC OVC OVC OVC OVC OVC OVC OVC
FltCat VFR VFR VFR VFR VFR VFR MVFR MVFR MVFR MVFR MVFR MVFR MVFR MVFR
WX -- -- -- -- -- -- -SHRA -SHRA -SHRA -SHRA -RA BR -RA BR -RA BR -RA BR
WDir 260 270 270 270 270 270 60 60 60 60 90 90 90 90
WSpd 14 10 10 10 10 10 5 5 5 5 8 8 8 8
WGst -- -- -- -- -- -- -- -- -- -- -- -- -- --

Raw TAF
KLAX 260258Z 2603/2706 27010KT P6SM BKN100
  FM260900 06005KT P6SM -SHRA BKN030 OVC050
  FM261300 09008KT 5SM -RA BR BKN010 OVC021
  FM261700 14005KT P6SM -SHRA SCT015 BKN025
  FM262000 18007KT P6SM VCSH BKN020 BKN040
  FM270500 19007KT 5SM BR VCSH BKN015 OVC030


Raw METAR
KLAX 260253Z 26014KT 10SM SCT020 BKN100 OVC150 12/08 A3002 RMK AO2 SLP166 T01220083 53001
KLAX 260153Z 25004KT 10SM SCT022 BKN110 12/08 A3001 RMK AO2 SLP162 T01220083
KLAX 260053Z 19006KT 10SM FEW030 SCT060 BKN100 BKN150 13/08 A3001 RMK AO2 SLP164 T01280083

METAR Board
Radar Display
Forecast Discussion

FOR SITUATIONAL AWARENESS. NOT TO BE USED FOR FLIGHT PLANNING PURPOSES.

Page loaded:  03:14 UTC  |   07:14 PM Pacific  |   08:14 PM Mountain  |   09:14 PM Central  |   10:14 PM Eastern

 

ADVISORIES

FORECASTS

FORECASTS

OBSERVATIONS

USER TOOLS

ABOUT US